Time;durP1;ratioP1;P1;durP2;ratioP2;P2;SDS_P1;SDS_P2;PMS_P1;PMS_P2;Temp;Humidity;BMP_temperature;BMP_pressure;BME280_temperature;BME280_humidity;BME280_pressure;Samples;Min_cycle;Max_cycle;Signal;HPM_P1;HPM_P2
2021/10/31 00:04:32;;;;;;;3.73;2.70;;;18.10;64.70;;;;;;10460205;28;20217;-62
2021/10/31 00:09:55;;;;;;;3.13;2.80;;;18.10;64.70;;;;;;10459100;28;20572;-64
2021/10/31 00:15:18;;;;;;;4.07;3.13;;;18.10;64.80;;;;;;10479420;28;20228;-64
2021/10/31 00:20:40;;;;;;;3.43;3.07;;;18.00;64.80;;;;;;10541707;28;20192;-64
2021/10/31 00:26:02;;;;;;;3.10;2.70;;;18.00;65.00;;;;;;10506810;28;20209;-63
2021/10/31 00:31:26;;;;;;;3.70;3.17;;;18.00;65.10;;;;;;10499415;28;20200;-64
2021/10/31 00:36:48;;;;;;;3.50;2.97;;;17.90;65.20;;;;;;10500344;28;20304;-64
2021/10/31 00:42:10;;;;;;;3.77;2.60;;;17.90;65.30;;;;;;10499751;28;20197;-65
2021/10/31 00:47:34;;;;;;;2.93;2.63;;;17.90;66.00;;;;;;10499381;28;20192;-63
2021/10/31 00:52:57;;;;;;;3.20;2.90;;;18.00;65.40;;;;;;10498868;28;20223;-65
2021/10/31 00:58:20;;;;;;;2.57;2.27;;;18.00;65.30;;;;;;10503201;28;20227;-64
2021/10/31 01:03:44;;;;;;;3.80;2.90;;;18.00;65.20;;;;;;10540445;28;20215;-64
2021/10/31 01:09:16;;;;;;;4.40;3.60;;;18.00;65.30;;;;;;10539827;28;20188;-64
2021/10/31 01:15:02;;;;;;;4.53;2.80;;;18.00;65.50;;;;;;10456507;28;20627;-64
2021/10/31 01:20:36;;;;;;;4.97;3.33;;;18.00;65.60;;;;;;10455755;28;20589;-65
2021/10/31 01:26:13;;;;;;;5.00;3.20;;;18.00;65.80;;;;;;10510786;28;20212;-64
2021/10/31 01:31:44;;;;;;;3.23;2.90;;;17.90;65.90;;;;;;10527935;28;20686;-65
2021/10/31 01:37:17;;;;;;;3.47;3.17;;;17.90;66.00;;;;;;10529413;28;20722;-64
2021/10/31 01:42:50;;;;;;;3.43;3.00;;;17.90;66.10;;;;;;10539308;28;20236;-63
2021/10/31 01:48:22;;;;;;;5.63;2.57;;;17.90;66.10;;;;;;10539914;28;20188;-64
2021/10/31 01:53:52;;;;;;;3.10;2.80;;;17.90;66.00;;;;;;10538961;28;20287;-64
2021/10/31 01:59:21;;;;;;;4.00;2.63;;;18.00;65.90;;;;;;10513886;28;20257;-64
2021/10/31 02:04:47;;;;;;;3.87;3.20;;;18.00;65.80;;;;;;10455251;28;20213;-64
2021/10/31 02:10:13;;;;;;;3.57;2.97;;;18.00;65.80;;;;;;10454426;28;20197;-63
2021/10/31 02:15:36;;;;;;;3.50;3.00;;;18.00;65.90;;;;;;10455218;28;20224;-65
2021/10/31 02:21:00;;;;;;;3.40;3.10;;;17.90;65.90;;;;;;10454242;28;20197;-65
2021/10/31 02:26:23;;;;;;;3.73;3.17;;;17.90;66.10;;;;;;10529473;28;20207;-64
2021/10/31 02:31:45;;;;;;;3.57;3.07;;;17.90;66.20;;;;;;10537963;28;20188;-65
2021/10/31 02:37:08;;;;;;;3.50;3.20;;;17.80;66.20;;;;;;10537308;28;20594;-65
2021/10/31 02:42:32;;;;;;;3.20;2.77;;;17.80;66.30;;;;;;10536465;28;20220;-65
2021/10/31 02:47:57;;;;;;;5.33;3.17;;;17.90;66.30;;;;;;10537595;28;20188;-64
2021/10/31 02:53:25;;;;;;;3.27;2.97;;;17.90;66.20;;;;;;10537083;28;20219;-64
2021/10/31 02:58:56;;;;;;;5.20;3.20;;;18.00;66.10;;;;;;10519899;28;20211;-64
2021/10/31 03:04:18;;;;;;;5.03;3.37;;;18.00;66.00;;;;;;10533010;28;20290;-64
2021/10/31 03:09:40;;;;;;;3.47;2.80;;;17.90;66.00;;;;;;10510186;28;20242;-64
2021/10/31 03:15:05;;;;;;;3.90;3.23;;;17.90;66.10;;;;;;10454227;28;20212;-64
2021/10/31 03:20:28;;;;;;;3.57;2.90;;;17.90;66.20;;;;;;10454414;28;20574;-64
2021/10/31 03:25:50;;;;;;;3.30;2.90;;;17.90;66.30;;;;;;10513516;28;20220;-64
2021/10/31 03:31:13;;;;;;;3.20;2.57;;;17.90;66.20;;;;;;10510247;28;20199;-63
2021/10/31 03:36:35;;;;;;;3.73;2.60;;;18.00;66.20;;;;;;10539365;28;20212;-64
2021/10/31 03:41:58;;;;;;;3.13;2.83;;;18.00;66.20;;;;;;10544203;28;20196;-65
2021/10/31 03:47:23;;;;;;;4.33;3.00;;;18.00;66.20;;;;;;10544264;28;20196;-64
2021/10/31 03:52:46;;;;;;;3.27;2.60;;;17.90;66.20;;;;;;10544088;28;20215;-64
2021/10/31 03:58:08;;;;;;;3.77;3.20;;;17.90;66.30;;;;;;10527652;28;20207;-65
2021/10/31 04:03:32;;;;;;;3.43;3.13;;;17.90;66.40;;;;;;10534703;28;20687;-65
2021/10/31 04:08:54;;;;;;;3.43;2.53;;;17.80;66.50;;;;;;10542091;28;20262;-63
2021/10/31 04:14:16;;;;;;;2.90;2.60;;;17.80;66.60;;;;;;10543208;28;20575;-64
2021/10/31 04:19:40;;;;;;;4.03;2.77;;;17.80;66.70;;;;;;10542685;28;20192;-63
2021/10/31 04:25:02;;;;;;;2.50;2.30;;;17.80;66.80;;;;;;10515439;28;20683;-63
2021/10/31 04:30:24;;;;;;;3.07;2.20;;;17.90;66.80;;;;;;10499158;28;20200;-64
2021/10/31 04:35:48;;;;;;;3.57;2.30;;;17.90;66.60;;;;;;10534207;22;20228;-63
2021/10/31 04:41:10;;;;;;;4.17;3.10;;;17.90;66.50;;;;;;10509936;28;20588;-63
2021/10/31 04:46:32;;;;;;;3.20;2.90;;;17.90;66.50;;;;;;10537521;28;20216;-63
2021/10/31 04:51:56;;;;;;;4.27;2.90;;;17.90;66.50;;;;;;10501121;28;20612;-63
2021/10/31 04:57:18;;;;;;;3.23;2.93;;;17.90;66.50;;;;;;10476889;28;20212;-62
2021/10/31 05:02:40;;;;;;;3.10;2.70;;;17.80;66.50;;;;;;10476621;28;20197;-62
2021/10/31 05:08:05;;;;;;;3.43;2.50;;;17.80;66.60;;;;;;10465206;28;20239;-64
2021/10/31 05:13:27;;;;;;;3.80;3.07;;;17.90;66.50;;;;;;10454541;28;20212;-62
2021/10/31 05:18:49;;;;;;;5.30;2.40;;;17.90;66.40;;;;;;10455800;28;20219;-64
2021/10/31 05:24:13;;;;;;;3.43;3.13;;;17.90;66.40;;;;;;10457426;28;20217;-63
2021/10/31 05:29:35;;;;;;;3.60;2.73;;;17.90;66.40;;;;;;10467219;28;20567;-62
2021/10/31 05:34:57;;;;;;;2.80;2.50;;;17.90;66.40;;;;;;10472069;28;20231;-62
2021/10/31 05:40:21;;;;;;;3.00;2.70;;;17.80;66.40;;;;;;10507531;28;20203;-63
2021/10/31 05:45:43;;;;;;;3.20;2.90;;;17.80;66.60;;;;;;10529078;28;20341;-63
2021/10/31 05:51:05;;;;;;;3.03;2.63;;;17.80;66.70;;;;;;10536542;28;20207;-62
2021/10/31 05:56:29;;;;;;;2.90;2.70;;;17.80;66.80;;;;;;10535144;28;20215;-63
2021/10/31 06:01:51;;;;;;;2.97;2.57;;;17.70;66.80;;;;;;10502255;28;20207;-63
2021/10/31 06:07:14;;;;;;;2.67;2.40;;;17.80;66.90;;;;;;10540233;28;20218;-62
2021/10/31 06:12:41;;;;;;;2.50;2.23;;;17.80;66.80;;;;;;10544803;28;20214;-62
2021/10/31 06:18:04;;;;;;;3.70;2.50;;;17.90;66.70;;;;;;10535991;28;20211;-62
2021/10/31 06:23:26;;;;;;;2.20;2.00;;;17.90;66.50;;;;;;10521513;28;20228;-63
2021/10/31 06:28:50;;;;;;;2.63;2.40;;;18.00;66.40;;;;;;10493541;28;20571;-64
2021/10/31 06:34:12;;;;;;;2.40;2.20;;;18.00;66.30;;;;;;10495390;28;20226;-63
2021/10/31 06:39:34;;;;;;;2.50;2.10;;;18.00;66.20;;;;;;10492671;28;20219;-63
2021/10/31 06:44:57;;;;;;;3.63;2.70;;;18.00;66.10;;;;;;10492600;28;20591;-64
2021/10/31 06:50:19;;;;;;;2.63;2.20;;;18.10;66.00;;;;;;10503760;28;20195;-62
2021/10/31 06:55:42;;;;;;;2.97;2.40;;;18.10;66.00;;;;;;10524877;28;20699;-66
2021/10/31 07:01:06;;;;;;;2.90;2.63;;;18.10;65.90;;;;;;10531796;28;20194;-63
2021/10/31 07:06:28;;;;;;;2.40;2.20;;;18.10;65.80;;;;;;10519761;28;20212;-64
2021/10/31 07:11:50;;;;;;;2.97;2.43;;;18.10;65.80;;;;;;10542436;28;20219;-63
2021/10/31 07:17:13;;;;;;;4.03;2.13;;;18.10;65.80;;;;;;10510315;28;20212;-64
2021/10/31 07:22:35;;;;;;;3.27;2.80;;;18.10;65.80;;;;;;10499206;28;20187;-63
2021/10/31 07:27:58;;;;;;;2.80;2.47;;;18.20;65.70;;;;;;10535106;28;20183;-63
2021/10/31 07:33:21;;;;;;;2.60;2.40;;;18.20;65.80;;;;;;10533773;28;20219;-63
2021/10/31 07:38:44;;;;;;;2.90;2.23;;;18.10;65.70;;;;;;10533320;28;20204;-66
2021/10/31 07:44:06;;;;;;;4.00;2.40;;;18.20;65.80;;;;;;10528127;28;20229;-63
2021/10/31 07:49:29;;;;;;;2.57;2.30;;;18.10;65.80;;;;;;10524964;28;20204;-63
2021/10/31 07:54:52;;;;;;;2.83;2.20;;;18.10;65.80;;;;;;10491504;28;20695;-64
2021/10/31 08:00:15;;;;;;;2.90;2.53;;;18.20;65.90;;;;;;10519644;28;20215;-64
2021/10/31 08:05:39;;;;;;;2.40;2.20;;;18.20;65.90;;;;;;10534590;28;20216;-60
2021/10/31 08:11:01;;;;;;;2.30;2.10;;;18.20;65.90;;;;;;10519931;28;20227;-62
2021/10/31 08:16:24;;;;;;;2.30;2.10;;;18.20;66.00;;;;;;10517910;28;20269;-66
2021/10/31 08:21:48;;;;;;;2.57;2.37;;;18.20;66.10;;;;;;10512205;28;20193;-63
2021/10/31 08:27:10;;;;;;;2.40;2.10;;;18.20;66.10;;;;;;10509912;28;20334;-65
2021/10/31 08:32:39;;;;;;;2.03;1.83;;;18.20;66.10;;;;;;10500390;28;20267;-65
2021/10/31 08:38:03;;;;;;;2.80;2.07;;;18.20;66.20;;;;;;10499829;28;20218;-64
2021/10/31 08:43:25;;;;;;;2.40;1.97;;;18.20;66.20;;;;;;10498464;28;20217;-63
2021/10/31 08:48:48;;;;;;;2.60;2.00;;;18.30;66.20;;;;;;10496589;28;20506;-64
2021/10/31 08:54:11;;;;;;;2.00;1.80;;;18.20;66.20;;;;;;10498303;28;20560;-65
2021/10/31 08:59:35;;;;;;;2.17;1.97;;;18.30;66.30;;;;;;10516053;28;20219;-64
2021/10/31 09:04:57;;;;;;;2.30;1.83;;;18.20;66.30;;;;;;10498624;28;20218;-64
2021/10/31 09:10:20;;;;;;;3.10;1.90;;;18.30;66.40;;;;;;10497675;28;20215;-65
2021/10/31 09:15:42;;;;;;;1.63;1.53;;;18.30;67.00;;;;;;10496970;28;20212;-63
2021/10/31 09:21:06;;;;;;;2.77;1.73;;;18.30;66.50;;;;;;10496727;28;20203;-63
2021/10/31 09:26:30;;;;;;;1.83;1.73;;;18.30;66.50;;;;;;10535214;28;20211;-64
2021/10/31 09:31:52;;;;;;;1.70;1.60;;;18.30;67.00;;;;;;10537637;28;20203;-64
2021/10/31 09:37:15;;;;;;;1.80;1.70;;;18.30;66.50;;;;;;10537365;28;20298;-63
2021/10/31 09:42:38;;;;;;;2.67;2.30;;;18.30;66.60;;;;;;10527799;28;20581;-63
2021/10/31 09:48:02;;;;;;;2.47;2.17;;;18.20;66.50;;;;;;10497243;28;20277;-63
2021/10/31 09:53:26;;;;;;;2.20;2.00;;;18.20;66.50;;;;;;10495769;28;20216;-63
2021/10/31 09:58:51;;;;;;;2.37;1.90;;;18.30;66.70;;;;;;10515524;28;20216;-63
2021/10/31 10:04:13;;;;;;;2.03;1.73;;;18.30;66.70;;;;;;10538219;28;20586;-62
2021/10/31 10:09:37;;;;;;;2.73;2.07;;;18.20;66.70;;;;;;10537624;28;20598;-63
2021/10/31 10:15:04;;;;;;;2.10;1.57;;;18.30;66.80;;;;;;10518267;28;20694;-66
2021/10/31 10:20:26;;;;;;;3.87;2.47;;;18.30;66.90;;;;;;10515240;28;20205;-64
2021/10/31 10:25:49;;;;;;;2.80;2.00;;;18.20;67.00;;;;;;10506556;28;20212;-64
2021/10/31 10:31:24;;;;;;;2.30;2.10;;;18.20;67.00;;;;;;10493318;28;20204;-63
2021/10/31 10:36:49;;;;;;;2.37;1.87;;;18.20;67.10;;;;;;10530528;22;20597;-63
2021/10/31 10:42:19;;;;;;;3.83;1.80;;;18.20;67.20;;;;;;10524018;28;20223;-63
2021/10/31 10:47:44;;;;;;;2.47;2.27;;;18.20;67.20;;;;;;10477304;28;20216;-68
2021/10/31 10:53:13;;;;;;;9.47;3.47;;;18.20;67.50;;;;;;10476629;28;20204;-68
2021/10/31 10:58:35;;;;;;;16.77;5.10;;;18.30;68.00;;;;;;10484575;28;20220;-66
2021/10/31 11:03:59;;;;;;;14.97;5.10;;;18.30;67.80;;;;;;10489571;28;20224;-65
2021/10/31 11:09:21;;;;;;;33.43;10.20;;;18.40;68.20;;;;;;10491603;28;20201;-65
2021/10/31 11:14:43;;;;;;;42.40;11.20;;;18.50;69.00;;;;;;10480739;28;20261;-65
2021/10/31 11:20:09;;;;;;;20.23;8.13;;;18.50;68.80;;;;;;10481311;28;20220;-65
2021/10/31 11:25:33;;;;;;;28.83;9.27;;;18.50;68.70;;;;;;10477212;28;20294;-65
2021/10/31 11:30:56;;;;;;;24.90;10.90;;;18.50;68.80;;;;;;10492598;28;20289;-65
2021/10/31 11:36:20;;;;;;;23.63;8.43;;;18.50;68.60;;;;;;10484665;28;20224;-65
2021/10/31 11:41:42;;;;;;;22.47;8.93;;;18.50;68.80;;;;;;10493463;28;20195;-64
2021/10/31 11:47:21;;;;;;;22.83;9.07;;;18.50;68.80;;;;;;10483831;28;20220;-65
2021/10/31 11:52:50;;;;;;;22.83;8.90;;;18.50;68.70;;;;;;10483168;28;20193;-65
2021/10/31 11:58:52;;;;;;;23.83;9.10;;;18.50;68.80;;;;;;10479746;28;20213;-64
2021/10/31 12:10:30;;;;;;;20.70;8.43;;;18.50;68.80;;;;;;10495672;28;20290;-65
2021/10/31 12:15:59;;;;;;;16.37;7.53;;;18.50;68.70;;;;;;10487301;28;20220;-65
2021/10/31 12:21:22;;;;;;;14.93;7.03;;;18.40;68.70;;;;;;10498742;28;20223;-65
2021/10/31 12:26:48;;;;;;;14.20;6.63;;;18.50;68.70;;;;;;10491649;28;20216;-66
2021/10/31 12:32:16;;;;;;;12.77;6.30;;;18.40;68.70;;;;;;10498570;28;20250;-65
2021/10/31 12:37:38;;;;;;;15.43;6.53;;;18.40;68.70;;;;;;10494431;28;20608;-66
2021/10/31 12:43:06;;;;;;;13.90;6.47;;;18.40;68.80;;;;;;10480243;28;20203;-65
2021/10/31 12:48:37;;;;;;;13.93;7.60;;;18.40;68.90;;;;;;10477633;28;20203;-65
2021/10/31 12:54:01;;;;;;;14.67;7.27;;;18.50;69.60;;;;;;10491590;28;20217;-64
2021/10/31 12:59:25;;;;;;;11.90;6.53;;;18.50;69.80;;;;;;10491560;28;20216;-65
2021/10/31 13:04:52;;;;;;;15.57;6.67;;;18.60;69.90;;;;;;10490922;28;20243;-65
2021/10/31 13:10:18;;;;;;;14.23;6.63;;;18.60;69.90;;;;;;10494050;28;20192;-63
2021/10/31 13:15:43;;;;;;;10.13;6.17;;;18.60;70.10;;;;;;10495662;28;20208;-64
2021/10/31 13:21:08;;;;;;;13.00;6.30;;;18.60;70.10;;;;;;10479601;28;20205;-64
2021/10/31 13:26:30;;;;;;;11.63;6.37;;;18.60;70.20;;;;;;10494356;28;20227;-64
2021/10/31 13:31:53;;;;;;;9.60;5.53;;;18.60;70.40;;;;;;10486954;28;20203;-64
2021/10/31 13:37:20;;;;;;;12.43;6.07;;;18.70;70.50;;;;;;10480063;28;20228;-65
2021/10/31 13:42:44;;;;;;;8.77;5.27;;;18.70;70.40;;;;;;10493493;28;20548;-65
2021/10/31 13:53:52;;;;;;;10.13;6.07;;;18.70;70.60;;;;;;10472624;28;20406;-64
2021/10/31 13:59:15;;;;;;;9.63;5.37;;;18.70;70.60;;;;;;10491874;28;20451;-67
2021/10/31 14:04:39;;;;;;;8.90;5.30;;;18.70;70.50;;;;;;10495206;28;20224;-65
2021/10/31 14:10:01;;;;;;;10.73;5.60;;;18.70;70.60;;;;;;10494004;28;20200;-66
2021/10/31 14:15:23;;;;;;;10.10;5.93;;;18.70;70.60;;;;;;10491132;28;20422;-65
2021/10/31 14:20:50;;;;;;;9.90;4.70;;;19.00;69.30;;;;;;10493025;28;20223;-65
2021/10/31 14:26:15;;;;;;;7.40;4.53;;;18.80;69.80;;;;;;10480381;28;20596;-65
2021/10/31 14:31:37;;;;;;;7.33;4.50;;;18.70;70.20;;;;;;10479087;28;20208;-65
2021/10/31 14:37:10;;;;;;;7.30;4.50;;;18.60;70.30;;;;;;10493497;28;20216;-65
2021/10/31 14:42:32;;;;;;;8.77;4.70;;;18.60;70.70;;;;;;10480893;28;20197;-65
2021/10/31 14:47:55;;;;;;;8.13;4.70;;;18.60;70.80;;;;;;10485203;28;20216;-64
2021/10/31 14:53:19;;;;;;;7.57;4.07;;;18.60;70.80;;;;;;10492472;28;20635;-65
2021/10/31 14:58:41;;;;;;;8.07;4.80;;;18.60;70.80;;;;;;10493688;28;20298;-64
2021/10/31 15:04:04;;;;;;;10.27;4.63;;;18.60;70.90;;;;;;10493684;28;20227;-63
2021/10/31 15:09:27;;;;;;;6.90;4.17;;;18.60;70.90;;;;;;10492679;28;20196;-65
2021/10/31 15:14:50;;;;;;;8.47;4.50;;;18.50;70.90;;;;;;10474105;28;20218;-66
2021/10/31 15:20:13;;;;;;;8.07;4.20;;;18.60;70.90;;;;;;10489938;28;20706;-66
2021/10/31 15:25:36;;;;;;;5.60;3.80;;;18.60;70.90;;;;;;10484831;28;20223;-65
2021/10/31 15:30:58;;;;;;;6.80;4.10;;;18.60;71.50;;;;;;10492942;28;20576;-66
2021/10/31 15:36:20;;;;;;;4.53;3.53;;;18.50;70.90;;;;;;10493421;28;20232;-66
2021/10/31 15:41:44;;;;;;;5.27;3.63;;;18.50;71.00;;;;;;10490816;28;20212;-66
2021/10/31 15:47:08;;;;;;;4.70;3.60;;;18.60;71.00;;;;;;10468053;28;20226;-66
2021/10/31 15:52:30;;;;;;;5.63;3.57;;;18.50;70.90;;;;;;10451786;28;20259;-66
2021/10/31 15:57:53;;;;;;;5.47;3.37;;;18.60;71.40;;;;;;10452822;28;20219;-66
2021/10/31 16:03:16;;;;;;;6.03;3.40;;;18.60;70.90;;;;;;10450844;28;20362;-66
2021/10/31 16:08:38;;;;;;;5.43;3.53;;;18.50;70.80;;;;;;10451346;28;20569;-66
2021/10/31 16:14:01;;;;;;;4.67;3.33;;;18.60;70.80;;;;;;10466397;28;20212;-66
2021/10/31 16:19:24;;;;;;;4.10;2.80;;;18.60;70.70;;;;;;10479449;28;20243;-66
2021/10/31 16:24:46;;;;;;;4.23;3.17;;;18.60;70.70;;;;;;10479716;28;20224;-66
2021/10/31 16:30:10;;;;;;;3.57;2.70;;;18.50;70.70;;;;;;10491746;28;20189;-66
2021/10/31 16:35:32;;;;;;;2.87;2.37;;;18.50;70.70;;;;;;10507892;22;20220;-67
2021/10/31 16:40:55;;;;;;;4.33;2.77;;;18.50;70.70;;;;;;10491495;28;20212;-65
2021/10/31 16:46:18;;;;;;;4.20;2.80;;;18.50;70.70;;;;;;10492121;28;20192;-65
2021/10/31 16:51:41;;;;;;;4.63;2.83;;;18.50;70.70;;;;;;10489870;28;20222;-67
2021/10/31 16:57:03;;;;;;;3.17;2.60;;;18.50;70.60;;;;;;10487408;28;20205;-66
2021/10/31 17:02:26;;;;;;;4.30;2.70;;;18.50;70.60;;;;;;10476568;28;20220;-65
2021/10/31 17:07:55;;;;;;;3.37;2.87;;;18.50;70.60;;;;;;10481865;28;20184;-65
2021/10/31 17:13:19;;;;;;;4.17;2.50;;;18.60;70.70;;;;;;10463071;28;20207;-65
2021/10/31 17:18:43;;;;;;;4.20;2.63;;;18.60;70.60;;;;;;10477023;28;20629;-66
2021/10/31 17:24:06;;;;;;;3.03;2.37;;;18.60;70.60;;;;;;10478215;28;20199;-65
2021/10/31 17:29:28;;;;;;;3.20;2.60;;;18.50;70.70;;;;;;10479355;28;20219;-66
2021/10/31 17:34:52;;;;;;;3.20;2.27;;;18.50;70.70;;;;;;10474246;28;20693;-66
2021/10/31 17:40:14;;;;;;;3.83;2.37;;;18.50;70.70;;;;;;10474123;28;20216;-66
2021/10/31 17:45:37;;;;;;;2.50;2.00;;;18.60;70.80;;;;;;10475262;28;20196;-67
2021/10/31 17:51:01;;;;;;;2.80;2.30;;;18.50;70.80;;;;;;10474813;28;20213;-66
2021/10/31 17:56:23;;;;;;;2.97;2.23;;;18.50;70.70;;;;;;10472160;28;20206;-68
2021/10/31 18:01:45;;;;;;;2.90;1.90;;;18.50;70.70;;;;;;10477303;28;20342;-67
2021/10/31 18:07:09;;;;;;;2.73;2.20;;;18.50;70.70;;;;;;10474204;28;20193;-67
2021/10/31 18:12:31;;;;;;;3.93;2.20;;;18.50;70.70;;;;;;10472730;28;20230;-67
2021/10/31 18:17:53;;;;;;;2.70;1.97;;;18.50;70.70;;;;;;10471860;28;20224;-66
2021/10/31 18:23:17;;;;;;;3.03;2.00;;;18.60;70.70;;;;;;10470506;28;20204;-66
2021/10/31 18:28:39;;;;;;;3.80;2.47;;;18.60;70.70;;;;;;10472534;28;20215;-68
2021/10/31 18:34:01;;;;;;;3.00;2.00;;;18.60;70.70;;;;;;10473486;28;20385;-68
2021/10/31 18:39:24;;;;;;;3.17;2.13;;;18.60;70.70;;;;;;10473356;28;20236;-67
2021/10/31 18:44:46;;;;;;;2.23;2.03;;;18.60;70.70;;;;;;10475455;28;20658;-67
2021/10/31 18:50:10;;;;;;;2.43;1.80;;;18.60;70.70;;;;;;10468179;28;20215;-65
2021/10/31 18:55:34;;;;;;;1.90;1.80;;;18.60;70.70;;;;;;10475345;28;20291;-66
2021/10/31 19:00:56;;;;;;;1.87;1.57;;;18.60;70.70;;;;;;10466017;28;20221;-66
2021/10/31 19:06:18;;;;;;;2.20;2.00;;;18.60;70.70;;;;;;10470220;28;20204;-66
2021/10/31 19:11:43;;;;;;;2.43;1.93;;;18.60;70.60;;;;;;10468074;28;20219;-66
2021/10/31 19:17:05;;;;;;;2.20;2.00;;;18.60;70.70;;;;;;10489859;28;20196;-67
2021/10/31 19:22:28;;;;;;;2.37;2.17;;;18.60;70.70;;;;;;10484340;28;20215;-66
2021/10/31 19:27:51;;;;;;;2.20;1.87;;;18.60;70.60;;;;;;10455842;28;20204;-66
2021/10/31 19:33:14;;;;;;;2.77;2.27;;;18.60;70.70;;;;;;10451345;28;20196;-64
2021/10/31 19:38:36;;;;;;;2.10;1.70;;;18.60;70.60;;;;;;10491951;28;20329;-66
2021/10/31 19:43:59;;;;;;;2.10;1.90;;;18.60;70.70;;;;;;10492667;28;20200;-65
2021/10/31 19:49:23;;;;;;;2.83;2.00;;;18.60;70.70;;;;;;10485198;28;20208;-66
2021/10/31 19:54:45;;;;;;;1.73;1.63;;;18.50;70.70;;;;;;10472893;28;20603;-63
2021/10/31 20:00:10;;;;;;;2.20;2.00;;;18.60;70.70;;;;;;10452509;28;20224;-63
2021/10/31 20:05:32;;;;;;;2.17;1.80;;;18.60;70.70;;;;;;10469889;28;20664;-64
2021/10/31 20:10:55;;;;;;;2.93;1.67;;;18.50;70.60;;;;;;10469626;28;20224;-63
2021/10/31 20:16:19;;;;;;;2.30;1.93;;;18.60;70.60;;;;;;10470850;28;20651;-63
2021/10/31 20:21:44;;;;;;;2.40;1.80;;;18.60;70.70;;;;;;10479086;28;20589;-63
2021/10/31 20:27:07;;;;;;;3.03;2.00;;;18.60;70.70;;;;;;10474888;28;20334;-63
2021/10/31 20:32:30;;;;;;;2.63;1.70;;;18.60;70.60;;;;;;10477923;28;20321;-62
2021/10/31 20:37:53;;;;;;;2.43;2.10;;;18.60;70.60;;;;;;10457269;28;20216;-64
2021/10/31 20:43:15;;;;;;;2.10;1.90;;;18.60;70.50;;;;;;10475279;28;20196;-62
2021/10/31 20:48:39;;;;;;;2.17;1.83;;;18.60;70.50;;;;;;10475274;28;20220;-63
2021/10/31 20:54:01;;;;;;;2.00;1.80;;;18.60;70.50;;;;;;10471646;28;20189;-63
2021/10/31 20:59:29;;;;;;;2.00;1.80;;;18.60;70.50;;;;;;10476146;28;20227;-63
2021/10/31 21:04:52;;;;;;;2.03;1.83;;;18.60;70.50;;;;;;10476346;28;20331;-63
2021/10/31 21:10:14;;;;;;;2.10;1.90;;;18.60;70.50;;;;;;10475844;28;20220;-62
2021/10/31 21:15:37;;;;;;;2.47;1.83;;;18.60;70.40;;;;;;10472189;28;20555;-62
2021/10/31 21:21:01;;;;;;;1.77;1.67;;;18.60;70.50;;;;;;10480433;28;20217;-62
2021/10/31 21:26:30;;;;;;;2.40;2.00;;;18.60;70.40;;;;;;10492732;28;20215;-62
2021/10/31 21:31:52;;;;;;;2.30;1.77;;;18.60;70.40;;;;;;10491540;28;20209;-62
2021/10/31 21:37:15;;;;;;;2.93;1.60;;;18.60;70.30;;;;;;10455691;28;20213;-63
2021/10/31 21:42:37;;;;;;;2.53;2.30;;;18.60;70.30;;;;;;10455177;28;20225;-62
2021/10/31 21:48:00;;;;;;;1.83;1.60;;;18.60;70.40;;;;;;10473824;28;20202;-62
2021/10/31 21:53:23;;;;;;;1.93;1.73;;;18.60;70.40;;;;;;10484371;28;20192;-62
2021/10/31 21:58:45;;;;;;;2.10;1.63;;;18.60;70.40;;;;;;10454940;28;20228;-63
2021/10/31 22:04:08;;;;;;;3.17;1.90;;;18.50;70.30;;;;;;10454420;28;20562;-63
2021/10/31 22:09:31;;;;;;;2.13;1.93;;;18.50;70.30;;;;;;10453142;28;20240;-62
2021/10/31 22:14:54;;;;;;;2.67;2.13;;;18.50;70.30;;;;;;10453885;28;20189;-62
2021/10/31 22:20:16;;;;;;;2.67;2.00;;;18.50;70.00;;;;;;10453176;28;20225;-62
2021/10/31 22:25:39;;;;;;;2.40;2.00;;;18.50;70.10;;;;;;10476623;28;20189;-62
2021/10/31 22:31:02;;;;;;;2.17;1.73;;;18.50;70.10;;;;;;10488602;28;20209;-62
2021/10/31 22:36:24;;;;;;;3.33;2.27;;;18.40;70.00;;;;;;10525700;22;20231;-65
2021/10/31 22:41:48;;;;;;;2.20;2.00;;;18.50;70.00;;;;;;10519383;28;20231;-65
2021/10/31 22:47:10;;;;;;;2.43;2.10;;;18.40;69.70;;;;;;10500958;28;20218;-65
2021/10/31 22:52:33;;;;;;;2.40;2.10;;;18.50;69.30;;;;;;10462624;28;20549;-65
2021/10/31 22:57:56;;;;;;;2.20;1.87;;;18.40;69.30;;;;;;10467289;28;20726;-65
2021/10/31 23:03:22;;;;;;;2.30;2.10;;;18.40;69.50;;;;;;10452960;28;20197;-65
2021/10/31 23:08:45;;;;;;;2.10;1.90;;;18.40;69.60;;;;;;10452606;28;20215;-65
2021/10/31 23:14:10;;;;;;;2.80;1.70;;;18.40;69.30;;;;;;10462552;28;20223;-64
2021/10/31 23:19:32;;;;;;;2.30;2.10;;;18.30;69.10;;;;;;10485361;28;20215;-65
2021/10/31 23:24:54;;;;;;;2.83;1.70;;;18.40;69.20;;;;;;10506244;28;20439;-64
2021/10/31 23:30:17;;;;;;;2.10;1.97;;;18.30;69.10;;;;;;10531452;28;20204;-65
2021/10/31 23:35:39;;;;;;;2.43;2.13;;;18.30;69.20;;;;;;10514489;28;20231;-64
2021/10/31 23:41:02;;;;;;;2.17;1.90;;;18.30;69.10;;;;;;10469927;28;20684;-64
2021/10/31 23:46:25;;;;;;;2.17;1.97;;;18.30;69.20;;;;;;10483912;28;20220;-65
2021/10/31 23:51:48;;;;;;;2.10;1.90;;;18.30;69.10;;;;;;10485774;28;20285;-64
2021/10/31 23:57:10;;;;;;;2.37;1.90;;;18.30;69.10;;;;;;10502300;28;20584;-64
